CGWSK CYQR-CYQR
Flight info
| Callsign | CGWSK |
|---|---|
| Flight time | 1h 10m |
| Altitude | 6000 |
| Route | NILTT |
| Aircraft | C310/L-SDFGR/S |
Departure
| Time | 2026-04-15 22:31 |
|---|---|
| Airport | Regina International Airport (CYQR) |
Arrival
| Time | 2026-04-15 23:41 |
|---|---|
| Airport | Regina International Airport (CYQR) |
| Time | Latitude | Longitude | Altitude | Speed | Heading |
|---|---|---|---|---|---|
| 2026-04-15 22:07 | 50.43802 | -104.65465 | 1888 ft | 0 kts | 184° |
| 2026-04-15 22:24 | 50.43798 | -104.65461 | 1888 ft | 1 kts | 114° |
| 2026-04-15 22:25 | 50.43801 | -104.65445 | 1884 ft | 3 kts | 57° |
| 2026-04-15 22:25 | 50.43799 | -104.65394 | 1886 ft | 8 kts | 150° |
| 2026-04-15 22:25 | 50.43769 | -104.65479 | 1888 ft | 15 kts | 272° |
| 2026-04-15 22:25 | 50.43770 | -104.65682 | 1889 ft | 19 kts | 269° |
| 2026-04-15 22:26 | 50.43770 | -104.65862 | 1890 ft | 15 kts | 271° |
| 2026-04-15 22:26 | 50.43755 | -104.65995 | 1885 ft | 11 kts | 226° |
| 2026-04-15 22:26 | 50.43714 | -104.66075 | 1891 ft | 8 kts | 232° |
| 2026-04-15 22:26 | 50.43678 | -104.66135 | 1893 ft | 7 kts | 226° |
| 2026-04-15 22:27 | 50.43635 | -104.66210 | 1893 ft | 14 kts | 231° |
| 2026-04-15 22:27 | 50.43636 | -104.66329 | 1896 ft | 15 kts | 313° |
| 2026-04-15 22:27 | 50.43742 | -104.66478 | 1897 ft | 25 kts | 318° |
| 2026-04-15 22:27 | 50.43890 | -104.66685 | 1890 ft | 31 kts | 318° |
| 2026-04-15 22:28 | 50.44024 | -104.66878 | 1894 ft | 22 kts | 308° |
| 2026-04-15 22:28 | 50.44048 | -104.67065 | 1896 ft | 15 kts | 270° |
| 2026-04-15 22:28 | 50.44006 | -104.67193 | 1891 ft | 14 kts | 200° |
| 2026-04-15 22:28 | 50.43958 | -104.67148 | 1896 ft | 12 kts | 140° |
| 2026-04-15 22:29 | 50.43798 | -104.66922 | 1898 ft | 67 kts | 138° |
| 2026-04-15 22:29 | 50.43316 | -104.66241 | 1942 ft | 112 kts | 126° |
| 2026-04-15 22:29 | 50.42836 | -104.65588 | 2114 ft | 128 kts | 135° |
| 2026-04-15 22:30 | 50.42414 | -104.64919 | 2262 ft | 136 kts | 124° |
| 2026-04-15 22:31 | 50.42089 | -104.64088 | 2493 ft | 134 kts | 103° |
| 2026-04-15 22:31 | 50.42010 | -104.62706 | 2928 ft | 127 kts | 84° |
| 2026-04-15 22:31 | 50.42186 | -104.61306 | 3168 ft | 138 kts | 57° |
| 2026-04-15 22:31 | 50.42856 | -104.60248 | 3478 ft | 137 kts | 19° |
| 2026-04-15 22:32 | 50.43719 | -104.59851 | 3948 ft | 127 kts | 9° |
| 2026-04-15 22:32 | 50.44614 | -104.59481 | 4263 ft | 132 kts | 8° |
| 2026-04-15 22:32 | 50.45473 | -104.59160 | 4665 ft | 130 kts | 4° |
| 2026-04-15 22:32 | 50.46410 | -104.59098 | 4913 ft | 134 kts | 354° |
| 2026-04-15 22:33 | 50.47374 | -104.59099 | 5083 ft | 146 kts | 351° |
| 2026-04-15 22:33 | 50.48467 | -104.59199 | 5060 ft | 167 kts | 352° |
| 2026-04-15 22:33 | 50.49674 | -104.59296 | 5055 ft | 178 kts | 353° |
| 2026-04-15 22:33 | 50.50916 | -104.59269 | 5048 ft | 178 kts | 356° |
| 2026-04-15 22:34 | 50.52144 | -104.59196 | 5046 ft | 174 kts | 358° |
| 2026-04-15 22:34 | 50.53341 | -104.59135 | 5045 ft | 170 kts | 357° |
| 2026-04-15 22:34 | 50.54494 | -104.59166 | 5029 ft | 161 kts | 339° |
| 2026-04-15 22:34 | 50.55484 | -104.59844 | 5034 ft | 153 kts | 328° |
| 2026-04-15 22:35 | 50.56425 | -104.60584 | 5039 ft | 150 kts | 328° |
| 2026-04-15 22:35 | 50.57337 | -104.61297 | 5040 ft | 147 kts | 328° |
| 2026-04-15 22:35 | 50.58251 | -104.62006 | 5041 ft | 146 kts | 328° |
| 2026-04-15 22:35 | 50.59153 | -104.62716 | 5042 ft | 144 kts | 328° |
| 2026-04-15 22:36 | 50.60046 | -104.63413 | 5044 ft | 143 kts | 328° |
| 2026-04-15 22:36 | 50.60940 | -104.64094 | 5047 ft | 142 kts | 328° |
| 2026-04-15 22:36 | 50.61825 | -104.64783 | 5052 ft | 142 kts | 328° |
| 2026-04-15 22:36 | 50.62707 | -104.65466 | 5055 ft | 142 kts | 328° |
| 2026-04-15 22:37 | 50.63595 | -104.66155 | 5055 ft | 142 kts | 328° |
| 2026-04-15 22:37 | 50.64482 | -104.66842 | 5060 ft | 142 kts | 328° |
| 2026-04-15 22:37 | 50.65240 | -104.67748 | 5073 ft | 134 kts | 300° |
| 2026-04-15 22:37 | 50.65745 | -104.68986 | 5072 ft | 134 kts | 298° |
| 2026-04-15 22:38 | 50.66244 | -104.70229 | 5077 ft | 134 kts | 298° |
| 2026-04-15 22:38 | 50.66745 | -104.71475 | 5077 ft | 134 kts | 298° |
| 2026-04-15 22:38 | 50.66929 | -104.72834 | 5074 ft | 131 kts | 249° |
| 2026-04-15 22:38 | 50.66220 | -104.73685 | 5081 ft | 139 kts | 192° |
| 2026-04-15 22:39 | 50.65249 | -104.73752 | 5083 ft | 140 kts | 186° |
| 2026-04-15 22:39 | 50.64269 | -104.73713 | 5075 ft | 142 kts | 180° |
| 2026-04-15 22:39 | 50.63282 | -104.73578 | 5075 ft | 142 kts | 180° |
| 2026-04-15 22:39 | 50.62298 | -104.73343 | 5070 ft | 146 kts | 168° |
| 2026-04-15 22:40 | 50.61337 | -104.72833 | 5067 ft | 146 kts | 166° |
| 2026-04-15 22:40 | 50.60376 | -104.72322 | 5067 ft | 146 kts | 167° |
| 2026-04-15 22:40 | 50.59406 | -104.71898 | 5057 ft | 143 kts | 180° |
| 2026-04-15 22:41 | 50.57449 | -104.71824 | 5058 ft | 143 kts | 178° |
| 2026-04-15 22:41 | 50.56457 | -104.71656 | 5054 ft | 143 kts | 179° |
| 2026-04-15 22:41 | 50.55468 | -104.71498 | 5052 ft | 143 kts | 179° |
| 2026-04-15 22:41 | 50.54479 | -104.71336 | 5049 ft | 143 kts | 179° |
| 2026-04-15 22:42 | 50.53491 | -104.71172 | 5046 ft | 143 kts | 179° |
| 2026-04-15 22:42 | 50.52507 | -104.71014 | 5043 ft | 143 kts | 179° |
| 2026-04-15 22:42 | 50.51515 | -104.70846 | 5043 ft | 143 kts | 179° |
| 2026-04-15 22:42 | 50.50527 | -104.70684 | 5044 ft | 143 kts | 179° |
| 2026-04-15 22:43 | 50.49542 | -104.70518 | 5037 ft | 142 kts | 178° |
| 2026-04-15 22:43 | 50.48563 | -104.70295 | 5037 ft | 143 kts | 174° |
| 2026-04-15 22:43 | 50.47591 | -104.69959 | 5034 ft | 143 kts | 172° |
| 2026-04-15 22:43 | 50.46616 | -104.69624 | 5034 ft | 143 kts | 173° |
| 2026-04-15 22:44 | 50.45647 | -104.69285 | 5031 ft | 142 kts | 173° |
| 2026-04-15 22:44 | 50.44753 | -104.69580 | 5031 ft | 131 kts | 227° |
| 2026-04-15 22:44 | 50.44557 | -104.70866 | 5028 ft | 129 kts | 288° |
| 2026-04-15 22:44 | 50.45272 | -104.71724 | 5040 ft | 147 kts | 347° |
| 2026-04-15 22:45 | 50.46338 | -104.71520 | 5056 ft | 160 kts | 6° |
| 2026-04-15 22:45 | 50.47456 | -104.71174 | 5053 ft | 167 kts | 6° |
| 2026-04-15 22:45 | 50.48609 | -104.70820 | 5053 ft | 171 kts | 6° |
| 2026-04-15 22:45 | 50.49789 | -104.70459 | 5050 ft | 174 kts | 6° |
| 2026-04-15 22:46 | 50.50985 | -104.70099 | 5047 ft | 176 kts | 6° |
| 2026-04-15 22:46 | 50.52199 | -104.69742 | 5048 ft | 178 kts | 6° |
| 2026-04-15 22:46 | 50.53423 | -104.69384 | 5048 ft | 180 kts | 6° |
| 2026-04-15 22:46 | 50.54657 | -104.69026 | 5052 ft | 181 kts | 6° |
| 2026-04-15 22:47 | 50.55895 | -104.68668 | 5059 ft | 181 kts | 6° |
| 2026-04-15 22:47 | 50.57140 | -104.68314 | 5057 ft | 182 kts | 6° |
| 2026-04-15 22:47 | 50.58391 | -104.67981 | 5059 ft | 181 kts | 359° |
| 2026-04-15 22:47 | 50.59594 | -104.68358 | 5062 ft | 175 kts | 338° |
| 2026-04-15 22:48 | 50.60754 | -104.68954 | 5068 ft | 173 kts | 346° |
| 2026-04-15 22:48 | 50.61822 | -104.69386 | 5021 ft | 147 kts | 344° |
| 2026-04-15 22:48 | 50.62740 | -104.69821 | 5020 ft | 130 kts | 342° |
| 2026-04-15 22:48 | 50.63560 | -104.70220 | 5026 ft | 118 kts | 342° |
| 2026-04-15 22:49 | 50.64311 | -104.70591 | 5031 ft | 108 kts | 342° |
| 2026-04-15 22:49 | 50.65012 | -104.70953 | 5054 ft | 106 kts | 327° |
| 2026-04-15 22:49 | 50.65760 | -104.71394 | 5105 ft | 126 kts | 337° |
| 2026-04-15 22:49 | 50.66659 | -104.71813 | 5108 ft | 142 kts | 338° |
| 2026-04-15 22:50 | 50.67631 | -104.72293 | 5107 ft | 153 kts | 337° |
| 2026-04-15 22:50 | 50.68666 | -104.72823 | 5104 ft | 160 kts | 337° |
| 2026-04-15 22:50 | 50.69742 | -104.73386 | 5104 ft | 166 kts | 337° |
| 2026-04-15 22:50 | 50.70849 | -104.73969 | 5105 ft | 170 kts | 337° |
| 2026-04-15 22:51 | 50.71975 | -104.74572 | 5110 ft | 172 kts | 337° |
| 2026-04-15 22:51 | 50.72862 | -104.75732 | 5111 ft | 166 kts | 300° |
| 2026-04-15 22:51 | 50.73457 | -104.77289 | 5114 ft | 166 kts | 297° |
| 2026-04-15 22:51 | 50.74041 | -104.78869 | 5117 ft | 166 kts | 297° |
| 2026-04-15 22:52 | 50.74600 | -104.80465 | 5119 ft | 166 kts | 291° |
| 2026-04-15 22:52 | 50.74805 | -104.82233 | 5129 ft | 164 kts | 270° |
| 2026-04-15 22:52 | 50.74827 | -104.84033 | 5124 ft | 164 kts | 269° |
| 2026-04-15 22:52 | 50.74838 | -104.85841 | 5128 ft | 165 kts | 269° |
| 2026-04-15 22:53 | 50.74850 | -104.87671 | 5120 ft | 168 kts | 269° |
| 2026-04-15 22:53 | 50.74862 | -104.89511 | 5125 ft | 167 kts | 269° |
| 2026-04-15 22:53 | 50.74918 | -104.91341 | 5129 ft | 168 kts | 274° |
| 2026-04-15 22:53 | 50.75044 | -104.93178 | 5133 ft | 168 kts | 274° |
| 2026-04-15 22:54 | 50.75169 | -104.95010 | 5133 ft | 168 kts | 274° |
| 2026-04-15 22:54 | 50.75293 | -104.96847 | 5132 ft | 169 kts | 274° |
| 2026-04-15 22:54 | 50.75413 | -104.98692 | 5141 ft | 169 kts | 274° |
| 2026-04-15 22:54 | 50.75541 | -105.00535 | 5133 ft | 169 kts | 276° |
| 2026-04-15 22:55 | 50.76128 | -105.02126 | 5134 ft | 173 kts | 314° |
| 2026-04-15 22:55 | 50.77054 | -105.03361 | 5140 ft | 175 kts | 317° |
| 2026-04-15 22:55 | 50.78005 | -105.04595 | 5137 ft | 177 kts | 317° |
| 2026-04-15 22:55 | 50.78961 | -105.05829 | 5143 ft | 178 kts | 318° |
| 2026-04-15 22:56 | 50.79923 | -105.07071 | 5142 ft | 179 kts | 319° |
| 2026-04-15 22:56 | 50.81107 | -105.07671 | 5120 ft | 188 kts | 2° |
| 2026-04-15 22:56 | 50.82259 | -105.06736 | 5125 ft | 192 kts | 48° |
| 2026-04-15 22:56 | 50.82839 | -105.04873 | 5165 ft | 188 kts | 82° |
| 2026-04-15 22:57 | 50.82340 | -105.03082 | 4964 ft | 180 kts | 140° |
| 2026-04-15 22:57 | 50.81435 | -105.01836 | 4620 ft | 169 kts | 141° |
| 2026-04-15 22:57 | 50.80499 | -105.00733 | 4129 ft | 165 kts | 155° |
| 2026-04-15 22:57 | 50.79458 | -105.00223 | 3756 ft | 152 kts | 173° |
| 2026-04-15 22:58 | 50.78530 | -104.99938 | 3639 ft | 125 kts | 172° |
| 2026-04-15 22:58 | 50.77685 | -104.99673 | 3224 ft | 122 kts | 173° |
| 2026-04-15 22:58 | 50.76863 | -104.99283 | 2542 ft | 129 kts | 156° |
| 2026-04-15 22:58 | 50.76068 | -104.98616 | 1990 ft | 129 kts | 148° |
| 2026-04-15 22:59 | 50.75365 | -104.97927 | 1870 ft | 106 kts | 140° |
| 2026-04-15 22:59 | 50.74721 | -104.97279 | 2010 ft | 117 kts | 144° |
| 2026-04-15 22:59 | 50.73966 | -104.96705 | 2279 ft | 123 kts | 169° |
| 2026-04-15 22:59 | 50.73133 | -104.96484 | 2683 ft | 122 kts | 170° |
| 2026-04-15 23:00 | 50.72421 | -104.95781 | 2970 ft | 130 kts | 125° |
| 2026-04-15 23:00 | 50.72230 | -104.94322 | 3088 ft | 145 kts | 96° |
| 2026-04-15 23:00 | 50.72454 | -104.92782 | 3119 ft | 153 kts | 40° |
| 2026-04-15 23:00 | 50.73456 | -104.92491 | 3110 ft | 156 kts | 339° |
| 2026-04-15 23:01 | 50.74507 | -104.93037 | 3076 ft | 161 kts | 336° |
| 2026-04-15 23:01 | 50.75527 | -104.93696 | 3215 ft | 154 kts | 332° |
| 2026-04-15 23:01 | 50.76461 | -104.94538 | 3169 ft | 159 kts | 324° |
| 2026-04-15 23:01 | 50.77400 | -104.95543 | 3069 ft | 167 kts | 320° |
| 2026-04-15 23:02 | 50.78364 | -104.96590 | 3052 ft | 168 kts | 323° |
| 2026-04-15 23:02 | 50.79175 | -104.97844 | 3212 ft | 154 kts | 296° |
| 2026-04-15 23:02 | 50.79271 | -104.99506 | 3167 ft | 155 kts | 254° |
| 2026-04-15 23:02 | 50.78471 | -105.00490 | 3205 ft | 158 kts | 184° |
| 2026-04-15 23:03 | 50.77411 | -104.99923 | 2793 ft | 177 kts | 148° |
| 2026-04-15 23:03 | 50.76350 | -104.98869 | 2331 ft | 178 kts | 147° |
| 2026-04-15 23:03 | 50.75351 | -104.97909 | 3049 ft | 101 kts | 152° |
| 2026-04-15 23:03 | 50.74742 | -104.97288 | 3470 ft | 123 kts | 150° |
| 2026-04-15 23:04 | 50.74043 | -104.96467 | 3727 ft | 129 kts | 135° |
| 2026-04-15 23:04 | 50.73476 | -104.95280 | 3879 ft | 142 kts | 130° |
| 2026-04-15 23:04 | 50.72864 | -104.93945 | 3848 ft | 151 kts | 129° |
| 2026-04-15 23:04 | 50.72262 | -104.92607 | 3838 ft | 148 kts | 127° |
| 2026-04-15 23:05 | 50.71670 | -104.91313 | 3821 ft | 143 kts | 141° |
| 2026-04-15 23:05 | 50.70874 | -104.90396 | 3815 ft | 141 kts | 148° |
| 2026-04-15 23:05 | 50.69984 | -104.89925 | 3813 ft | 134 kts | 179° |
| 2026-04-15 23:05 | 50.69060 | -104.89784 | 3804 ft | 133 kts | 179° |
| 2026-04-15 23:06 | 50.68145 | -104.89641 | 3798 ft | 131 kts | 179° |
| 2026-04-15 23:06 | 50.67251 | -104.89461 | 3794 ft | 130 kts | 171° |
| 2026-04-15 23:06 | 50.66402 | -104.88932 | 3805 ft | 134 kts | 158° |
| 2026-04-15 23:06 | 50.65577 | -104.88188 | 3809 ft | 140 kts | 147° |
| 2026-04-15 23:07 | 50.64788 | -104.87244 | 3806 ft | 145 kts | 147° |
| 2026-04-15 23:07 | 50.63976 | -104.86283 | 3800 ft | 146 kts | 147° |
| 2026-04-15 23:07 | 50.63253 | -104.85144 | 3804 ft | 150 kts | 129° |
| 2026-04-15 23:07 | 50.62549 | -104.83957 | 3792 ft | 148 kts | 149° |
| 2026-04-15 23:08 | 50.61696 | -104.83054 | 3788 ft | 148 kts | 152° |
| 2026-04-15 23:08 | 50.60827 | -104.82168 | 3787 ft | 150 kts | 151° |
| 2026-04-15 23:08 | 50.59945 | -104.81276 | 3785 ft | 152 kts | 152° |
| 2026-04-15 23:08 | 50.59050 | -104.80382 | 3776 ft | 152 kts | 152° |
| 2026-04-15 23:09 | 50.58152 | -104.79519 | 3771 ft | 151 kts | 154° |
| 2026-04-15 23:09 | 50.57248 | -104.78692 | 3773 ft | 150 kts | 153° |
| 2026-04-15 23:09 | 50.56336 | -104.77863 | 3767 ft | 152 kts | 155° |
| 2026-04-15 23:09 | 50.55432 | -104.77039 | 3763 ft | 152 kts | 155° |
| 2026-04-15 23:10 | 50.54521 | -104.76191 | 3757 ft | 152 kts | 153° |
| 2026-04-15 23:10 | 50.53599 | -104.75416 | 3756 ft | 148 kts | 164° |
| 2026-04-15 23:10 | 50.52604 | -104.75167 | 3746 ft | 144 kts | 189° |
| 2026-04-15 23:10 | 50.51611 | -104.75324 | 3758 ft | 140 kts | 189° |
| 2026-04-15 23:11 | 50.50711 | -104.75452 | 3740 ft | 117 kts | 188° |
| 2026-04-15 23:11 | 50.49969 | -104.75345 | 3572 ft | 110 kts | 166° |
| 2026-04-15 23:11 | 50.49270 | -104.74852 | 3457 ft | 108 kts | 153° |
| 2026-04-15 23:11 | 50.48744 | -104.74005 | 3392 ft | 114 kts | 134° |
| 2026-04-15 23:12 | 50.48190 | -104.73082 | 3204 ft | 118 kts | 140° |
| 2026-04-15 23:12 | 50.47574 | -104.72208 | 3027 ft | 120 kts | 143° |
| 2026-04-15 23:12 | 50.46944 | -104.71343 | 2801 ft | 121 kts | 136° |
| 2026-04-15 23:12 | 50.46311 | -104.70453 | 2570 ft | 121 kts | 133° |
| 2026-04-15 23:13 | 50.45688 | -104.69578 | 2363 ft | 119 kts | 132° |
| 2026-04-15 23:13 | 50.45063 | -104.68723 | 2194 ft | 119 kts | 133° |
| 2026-04-15 23:13 | 50.44460 | -104.67873 | 2089 ft | 116 kts | 126° |
| 2026-04-15 23:13 | 50.43848 | -104.66998 | 1911 ft | 120 kts | 129° |
| 2026-04-15 23:14 | 50.43305 | -104.66225 | 1893 ft | 97 kts | 137° |
| 2026-04-15 23:14 | 50.42734 | -104.65429 | 1958 ft | 119 kts | 133° |
| 2026-04-15 23:14 | 50.42467 | -104.64320 | 2115 ft | 111 kts | 67° |
| 2026-04-15 23:14 | 50.42781 | -104.63337 | 2524 ft | 96 kts | 48° |
| 2026-04-15 23:15 | 50.43197 | -104.62440 | 2697 ft | 110 kts | 44° |
| 2026-04-15 23:15 | 50.43732 | -104.61588 | 2885 ft | 115 kts | 16° |
| 2026-04-15 23:15 | 50.44509 | -104.61457 | 3151 ft | 112 kts | 357° |
| 2026-04-15 23:15 | 50.45388 | -104.61516 | 3149 ft | 134 kts | 343° |
| 2026-04-15 23:16 | 50.46243 | -104.62110 | 3311 ft | 138 kts | 326° |
| 2026-04-15 23:16 | 50.47045 | -104.63014 | 3358 ft | 149 kts | 319° |
| 2026-04-15 23:16 | 50.47737 | -104.64181 | 3252 ft | 146 kts | 290° |
| 2026-04-15 23:16 | 50.48330 | -104.65436 | 3134 ft | 148 kts | 323° |
| 2026-04-15 23:17 | 50.49195 | -104.66312 | 3020 ft | 148 kts | 325° |
| 2026-04-15 23:17 | 50.50057 | -104.67185 | 2945 ft | 145 kts | 326° |
| 2026-04-15 23:17 | 50.50610 | -104.67753 | 2939 ft | 142 kts | 325° |
| 2026-04-15 23:17 | 50.51414 | -104.68598 | 2930 ft | 137 kts | 324° |
| 2026-04-15 23:18 | 50.52183 | -104.69432 | 2929 ft | 132 kts | 323° |
| 2026-04-15 23:18 | 50.52906 | -104.70273 | 2922 ft | 128 kts | 314° |
| 2026-04-15 23:18 | 50.53283 | -104.71473 | 2930 ft | 121 kts | 288° |
| 2026-04-15 23:18 | 50.53530 | -104.72712 | 2927 ft | 118 kts | 288° |
| 2026-04-15 23:19 | 50.53766 | -104.73945 | 2930 ft | 118 kts | 283° |
| 2026-04-15 23:19 | 50.53588 | -104.75182 | 2936 ft | 123 kts | 233° |
| 2026-04-15 23:19 | 50.52827 | -104.75769 | 3018 ft | 126 kts | 181° |
| 2026-04-15 23:19 | 50.52016 | -104.75265 | 3255 ft | 130 kts | 150° |
| 2026-04-15 23:20 | 50.51142 | -104.74852 | 3250 ft | 133 kts | 179° |
| 2026-04-15 23:20 | 50.50200 | -104.74747 | 3250 ft | 138 kts | 179° |
| 2026-04-15 23:20 | 50.49235 | -104.74535 | 3243 ft | 144 kts | 160° |
| 2026-04-15 23:20 | 50.48425 | -104.73562 | 3176 ft | 153 kts | 136° |
| 2026-04-15 23:21 | 50.47713 | -104.72497 | 2951 ft | 128 kts | 137° |
| 2026-04-15 23:21 | 50.47090 | -104.71586 | 2601 ft | 120 kts | 131° |
| 2026-04-15 23:21 | 50.46457 | -104.70657 | 2532 ft | 124 kts | 131° |
| 2026-04-15 23:21 | 50.45799 | -104.69744 | 2403 ft | 132 kts | 132° |
| 2026-04-15 23:22 | 50.45103 | -104.68756 | 2217 ft | 137 kts | 131° |
| 2026-04-15 23:22 | 50.44392 | -104.67764 | 2037 ft | 136 kts | 131° |
| 2026-04-15 23:22 | 50.43714 | -104.66809 | 1910 ft | 117 kts | 131° |
| 2026-04-15 23:22 | 50.43177 | -104.66048 | 1898 ft | 100 kts | 139° |
| 2026-04-15 23:23 | 50.42629 | -104.65251 | 2034 ft | 110 kts | 131° |
| 2026-04-15 23:23 | 50.42031 | -104.64445 | 2223 ft | 119 kts | 134° |
| 2026-04-15 23:23 | 50.41391 | -104.63572 | 2445 ft | 127 kts | 134° |
| 2026-04-15 23:23 | 50.40845 | -104.62493 | 2575 ft | 127 kts | 97° |
| 2026-04-15 23:24 | 50.41054 | -104.61296 | 2800 ft | 116 kts | 41° |
| 2026-04-15 23:24 | 50.41672 | -104.60442 | 2903 ft | 124 kts | 19° |
| 2026-04-15 23:24 | 50.42478 | -104.60004 | 3157 ft | 121 kts | 11° |
| 2026-04-15 23:24 | 50.43348 | -104.59814 | 3225 ft | 136 kts | 8° |
| 2026-04-15 23:25 | 50.44291 | -104.59696 | 3359 ft | 140 kts | 357° |
| 2026-04-15 23:25 | 50.45227 | -104.60042 | 3368 ft | 143 kts | 321° |
| 2026-04-15 23:25 | 50.45689 | -104.61394 | 3376 ft | 148 kts | 274° |
| 2026-04-15 23:25 | 50.45291 | -104.62863 | 3418 ft | 155 kts | 227° |
| 2026-04-15 23:26 | 50.44273 | -104.63498 | 3343 ft | 169 kts | 180° |
| 2026-04-15 23:26 | 50.43210 | -104.62804 | 3377 ft | 170 kts | 134° |
| 2026-04-15 23:26 | 50.42828 | -104.61099 | 3274 ft | 172 kts | 82° |
| 2026-04-15 23:26 | 50.43417 | -104.59632 | 3372 ft | 159 kts | 31° |
| 2026-04-15 23:27 | 50.44452 | -104.59295 | 3430 ft | 154 kts | 352° |
| 2026-04-15 23:27 | 50.45425 | -104.59864 | 3501 ft | 152 kts | 330° |
| 2026-04-15 23:27 | 50.46351 | -104.60749 | 3412 ft | 157 kts | 326° |
| 2026-04-15 23:27 | 50.47263 | -104.61696 | 3345 ft | 159 kts | 326° |
| 2026-04-15 23:28 | 50.48165 | -104.62647 | 3340 ft | 154 kts | 326° |
| 2026-04-15 23:28 | 50.49046 | -104.63584 | 3341 ft | 152 kts | 325° |
| 2026-04-15 23:28 | 50.49917 | -104.64513 | 3332 ft | 151 kts | 325° |
| 2026-04-15 23:28 | 50.50780 | -104.65439 | 3331 ft | 150 kts | 325° |
| 2026-04-15 23:29 | 50.51637 | -104.66360 | 3328 ft | 148 kts | 325° |
| 2026-04-15 23:29 | 50.52482 | -104.67264 | 3334 ft | 146 kts | 325° |
| 2026-04-15 23:29 | 50.53320 | -104.68162 | 3335 ft | 146 kts | 325° |
| 2026-04-15 23:29 | 50.54158 | -104.69067 | 3333 ft | 146 kts | 325° |
| 2026-04-15 23:30 | 50.54784 | -104.70294 | 3339 ft | 148 kts | 290° |
| 2026-04-15 23:30 | 50.54758 | -104.71899 | 3336 ft | 152 kts | 252° |
| 2026-04-15 23:30 | 50.54338 | -104.73421 | 3345 ft | 152 kts | 250° |
| 2026-04-15 23:30 | 50.53914 | -104.74942 | 3345 ft | 151 kts | 249° |
| 2026-04-15 23:31 | 50.53487 | -104.76456 | 3351 ft | 152 kts | 249° |
| 2026-04-15 23:31 | 50.53054 | -104.77972 | 3348 ft | 152 kts | 249° |
| 2026-04-15 23:31 | 50.52499 | -104.79386 | 3339 ft | 156 kts | 224° |
| 2026-04-15 23:31 | 50.51504 | -104.80047 | 3337 ft | 160 kts | 185° |
| 2026-04-15 23:32 | 50.50439 | -104.79616 | 3335 ft | 161 kts | 146° |
| 2026-04-15 23:32 | 50.49760 | -104.78271 | 3334 ft | 159 kts | 107° |
| 2026-04-15 23:32 | 50.49623 | -104.76572 | 3339 ft | 157 kts | 94° |
| 2026-04-15 23:32 | 50.49316 | -104.74916 | 3328 ft | 155 kts | 115° |
| 2026-04-15 23:33 | 50.48615 | -104.73726 | 3324 ft | 144 kts | 138° |
| 2026-04-15 23:33 | 50.47902 | -104.72713 | 3315 ft | 129 kts | 134° |
| 2026-04-15 23:33 | 50.47244 | -104.71790 | 3321 ft | 128 kts | 136° |
| 2026-04-15 23:33 | 50.46556 | -104.70812 | 3346 ft | 137 kts | 136° |
| 2026-04-15 23:34 | 50.45829 | -104.69791 | 3350 ft | 142 kts | 136° |
| 2026-04-15 23:34 | 50.45088 | -104.68736 | 3344 ft | 145 kts | 137° |
| 2026-04-15 23:34 | 50.44335 | -104.67680 | 3345 ft | 145 kts | 136° |
| 2026-04-15 23:36 | 50.43704 | -104.62316 | 3081 ft | 128 kts | 325° |
| 2026-04-15 23:36 | 50.44379 | -104.63095 | 3023 ft | 112 kts | 327° |
| 2026-04-15 23:36 | 50.44952 | -104.63805 | 3020 ft | 100 kts | 325° |
| 2026-04-15 23:36 | 50.45461 | -104.64453 | 3027 ft | 92 kts | 324° |
| 2026-04-15 23:37 | 50.45959 | -104.65095 | 3046 ft | 98 kts | 324° |
| 2026-04-15 23:37 | 50.46515 | -104.65788 | 3055 ft | 104 kts | 324° |
| 2026-04-15 23:37 | 50.47112 | -104.66521 | 3043 ft | 112 kts | 325° |
| 2026-04-15 23:37 | 50.47719 | -104.67285 | 3049 ft | 112 kts | 325° |
| 2026-04-15 23:38 | 50.48334 | -104.68065 | 3050 ft | 114 kts | 324° |
| 2026-04-15 23:38 | 50.48961 | -104.68831 | 3041 ft | 114 kts | 326° |
| 2026-04-15 23:38 | 50.49556 | -104.69652 | 3041 ft | 116 kts | 310° |
| 2026-04-15 23:38 | 50.49707 | -104.70921 | 3047 ft | 130 kts | 261° |
| 2026-04-15 23:39 | 50.49268 | -104.72223 | 3050 ft | 140 kts | 228° |
| 2026-04-15 23:39 | 50.48403 | -104.72859 | 3049 ft | 140 kts | 181° |
| 2026-04-15 23:39 | 50.47502 | -104.72426 | 3038 ft | 135 kts | 139° |
| 2026-04-15 23:39 | 50.46878 | -104.71404 | 3032 ft | 127 kts | 129° |
| 2026-04-15 23:40 | 50.46229 | -104.70411 | 2692 ft | 134 kts | 130° |
| 2026-04-15 23:40 | 50.45558 | -104.69434 | 2372 ft | 124 kts | 130° |
| 2026-04-15 23:40 | 50.44915 | -104.68494 | 2240 ft | 131 kts | 132° |
| 2026-04-15 23:40 | 50.44257 | -104.67579 | 2031 ft | 123 kts | 131° |
| 2026-04-15 23:41 | 50.43656 | -104.66721 | 1897 ft | 104 kts | 134° |
| 2026-04-15 23:41 | 50.43367 | -104.66318 | 1896 ft | 7 kts | 126° |
| 2026-04-15 23:41 | 50.43369 | -104.66292 | 1898 ft | 0 kts | 24° |
| 2026-04-15 23:41 | 50.43403 | -104.66301 | 1897 ft | 15 kts | 8° |
| 2026-04-15 23:42 | 50.43500 | -104.66197 | 1894 ft | 18 kts | 23° |
| 2026-04-15 23:42 | 50.43618 | -104.66241 | 1896 ft | 14 kts | 38° |
| 2026-04-15 23:42 | 50.43676 | -104.66142 | 1888 ft | 11 kts | 51° |
| 2026-04-15 23:42 | 50.43719 | -104.66059 | 1887 ft | 9 kts | 47° |
| 2026-04-15 23:43 | 50.43761 | -104.65990 | 1891 ft | 9 kts | 57° |
| 2026-04-15 23:43 | 50.43770 | -104.65879 | 1890 ft | 12 kts | 91° |
| 2026-04-15 23:43 | 50.43778 | -104.65760 | 1886 ft | 9 kts | 37° |
| 2026-04-15 23:43 | 50.43833 | -104.65759 | 1886 ft | 7 kts | 1° |
| 2026-04-15 23:44 | 50.43860 | -104.65758 | 1885 ft | 1 kts | 32° |
| 2026-04-15 23:44 | 50.43855 | -104.65755 | 1887 ft | 0 kts | 180° |
| 2026-04-15 23:46 | 50.43854 | -104.65755 | 1887 ft | 0 kts | 186° |